sensor_id;sensor_type;location;lat;lon;timestamp;pressure;altitude;pressure_sealevel;temperature;humidity
44988;BME280;35735;52.226;21.254;2023-06-22T00:01:39;100329.63;;;22.23;100.00
44988;BME280;35735;52.226;21.254;2023-06-22T00:06:39;100328.16;;;22.16;100.00
44988;BME280;35735;52.226;21.254;2023-06-22T00:11:40;100335.91;;;22.08;100.00
44988;BME280;35735;52.226;21.254;2023-06-22T00:16:40;100336.19;;;22.01;100.00
44988;BME280;35735;52.226;21.254;2023-06-22T00:21:41;100334.03;;;21.89;100.00
44988;BME280;35735;52.226;21.254;2023-06-22T00:26:41;100334.78;;;21.74;100.00
44988;BME280;35735;52.226;21.254;2023-06-22T00:31:42;100335.00;;;21.69;100.00
44988;BME280;35735;52.226;21.254;2023-06-22T00:36:43;100341.38;;;21.70;100.00
44988;BME280;35735;52.226;21.254;2023-06-22T00:41:43;100334.53;;;21.59;100.00
44988;BME280;35735;52.226;21.254;2023-06-22T00:46:44;100337.62;;;21.52;100.00
44988;BME280;35735;52.226;21.254;2023-06-22T00:51:44;100324.00;;;21.50;100.00
44988;BME280;35735;52.226;21.254;2023-06-22T00:56:45;100331.69;;;21.42;100.00
44988;BME280;35735;52.226;21.254;2023-06-22T01:01:46;100328.94;;;21.42;100.00
44988;BME280;35735;52.226;21.254;2023-06-22T01:07:02;100329.75;;;21.44;100.00
44988;BME280;35735;52.226;21.254;2023-06-22T01:12:06;100318.28;;;21.34;100.00
44988;BME280;35735;52.226;21.254;2023-06-22T01:17:08;100308.84;;;21.21;100.00
44988;BME280;35735;52.226;21.254;2023-06-22T01:22:11;100301.03;;;21.12;100.00
44988;BME280;35735;52.226;21.254;2023-06-22T01:27:32;100300.44;;;21.05;100.00
44988;BME280;35735;52.226;21.254;2023-06-22T01:32:40;100302.78;;;20.94;100.00
44988;BME280;35735;52.226;21.254;2023-06-22T01:37:41;100295.63;;;20.89;100.00
44988;BME280;35735;52.226;21.254;2023-06-22T01:42:42;100293.09;;;20.85;100.00
44988;BME280;35735;52.226;21.254;2023-06-22T01:47:43;100289.59;;;20.81;100.00
44988;BME280;35735;52.226;21.254;2023-06-22T01:52:44;100287.53;;;20.66;100.00
44988;BME280;35735;52.226;21.254;2023-06-22T01:57:45;100282.25;;;20.60;100.00
44988;BME280;35735;52.226;21.254;2023-06-22T02:08:11;100287.22;;;20.51;100.00
44988;BME280;35735;52.226;21.254;2023-06-22T02:13:18;100296.53;;;20.47;100.00
44988;BME280;35735;52.226;21.254;2023-06-22T02:18:19;100300.94;;;20.29;100.00
44988;BME280;35735;52.226;21.254;2023-06-22T02:23:19;100309.50;;;20.22;100.00
44988;BME280;35735;52.226;21.254;2023-06-22T02:28:20;100312.13;;;20.25;100.00
44988;BME280;35735;52.226;21.254;2023-06-22T02:33:20;100326.88;;;20.21;100.00
44988;BME280;35735;52.226;21.254;2023-06-22T02:38:21;100341.63;;;20.18;100.00
44988;BME280;35735;52.226;21.254;2023-06-22T02:43:21;100356.31;;;20.15;100.00
44988;BME280;35735;52.226;21.254;2023-06-22T02:48:22;100362.37;;;20.24;100.00
44988;BME280;35735;52.226;21.254;2023-06-22T02:53:22;100357.34;;;20.35;100.00
44988;BME280;35735;52.226;21.254;2023-06-22T02:58:23;100365.00;;;20.49;100.00
44988;BME280;35735;52.226;21.254;2023-06-22T03:03:24;100371.88;;;20.59;100.00
44988;BME280;35735;52.226;21.254;2023-06-22T03:08:24;100378.84;;;20.68;100.00
44988;BME280;35735;52.226;21.254;2023-06-22T03:13:26;100374.91;;;20.75;100.00
44988;BME280;35735;52.226;21.254;2023-06-22T03:18:27;100385.47;;;20.84;100.00
44988;BME280;35735;52.226;21.254;2023-06-22T03:23:28;100387.13;;;20.88;100.00
44988;BME280;35735;52.226;21.254;2023-06-22T03:28:28;100398.72;;;20.95;100.00
44988;BME280;35735;52.226;21.254;2023-06-22T03:33:29;100393.00;;;21.00;100.00
44988;BME280;35735;52.226;21.254;2023-06-22T03:38:29;100412.84;;;21.06;100.00
44988;BME280;35735;52.226;21.254;2023-06-22T03:43:30;100413.63;;;21.10;100.00
44988;BME280;35735;52.226;21.254;2023-06-22T03:48:30;100410.66;;;21.15;100.00
44988;BME280;35735;52.226;21.254;2023-06-22T03:53:31;100406.69;;;21.22;100.00
44988;BME280;35735;52.226;21.254;2023-06-22T03:58:32;100410.75;;;21.34;100.00
44988;BME280;35735;52.226;21.254;2023-06-22T04:03:32;100416.72;;;21.43;100.00
44988;BME280;35735;52.226;21.254;2023-06-22T04:08:33;100418.88;;;21.57;100.00
44988;BME280;35735;52.226;21.254;2023-06-22T04:13:33;100423.66;;;21.73;100.00
44988;BME280;35735;52.226;21.254;2023-06-22T04:18:34;100438.19;;;21.75;100.00
44988;BME280;35735;52.226;21.254;2023-06-22T04:23:34;100429.12;;;21.73;100.00
44988;BME280;35735;52.226;21.254;2023-06-22T04:28:35;100435.50;;;21.73;100.00
44988;BME280;35735;52.226;21.254;2023-06-22T04:33:35;100441.78;;;21.77;100.00
44988;BME280;35735;52.226;21.254;2023-06-22T04:38:36;100440.72;;;21.79;100.00
44988;BME280;35735;52.226;21.254;2023-06-22T04:43:36;100444.75;;;21.91;100.00
44988;BME280;35735;52.226;21.254;2023-06-22T04:48:37;100434.84;;;22.08;100.00
44988;BME280;35735;52.226;21.254;2023-06-22T04:53:38;100432.31;;;22.22;100.00
44988;BME280;35735;52.226;21.254;2023-06-22T04:58:38;100428.88;;;22.37;100.00
44988;BME280;35735;52.226;21.254;2023-06-22T05:03:39;100437.00;;;22.58;100.00
44988;BME280;35735;52.226;21.254;2023-06-22T05:08:40;100425.88;;;22.79;100.00
44988;BME280;35735;52.226;21.254;2023-06-22T05:13:40;100438.62;;;22.99;100.00
44988;BME280;35735;52.226;21.254;2023-06-22T05:18:41;100439.59;;;23.34;100.00
44988;BME280;35735;52.226;21.254;2023-06-22T05:23:42;100442.31;;;23.52;100.00
44988;BME280;35735;52.226;21.254;2023-06-22T05:28:42;100440.22;;;23.57;100.00
44988;BME280;35735;52.226;21.254;2023-06-22T05:33:43;100446.63;;;23.57;100.00
44988;BME280;35735;52.226;21.254;2023-06-22T05:38:44;100442.16;;;23.55;100.00
44988;BME280;35735;52.226;21.254;2023-06-22T05:43:45;100461.38;;;23.56;100.00
44988;BME280;35735;52.226;21.254;2023-06-22T05:48:45;100468.28;;;23.47;100.00
44988;BME280;35735;52.226;21.254;2023-06-22T05:53:46;100467.69;;;23.41;100.00
44988;BME280;35735;52.226;21.254;2023-06-22T05:58:46;100467.22;;;23.33;100.00
44988;BME280;35735;52.226;21.254;2023-06-22T06:03:47;100480.41;;;23.26;100.00
44988;BME280;35735;52.226;21.254;2023-06-22T06:08:48;100477.97;;;23.20;100.00
44988;BME280;35735;52.226;21.254;2023-06-22T06:13:48;100482.81;;;23.15;100.00
44988;BME280;35735;52.226;21.254;2023-06-22T06:18:49;100484.91;;;23.09;100.00
44988;BME280;35735;52.226;21.254;2023-06-22T06:23:49;100476.28;;;22.98;100.00
44988;BME280;35735;52.226;21.254;2023-06-22T06:28:50;100487.28;;;22.98;100.00
44988;BME280;35735;52.226;21.254;2023-06-22T06:33:50;100501.69;;;23.03;100.00
44988;BME280;35735;52.226;21.254;2023-06-22T06:38:51;100497.09;;;23.04;100.00
44988;BME280;35735;52.226;21.254;2023-06-22T06:43:51;100505.16;;;23.08;100.00
44988;BME280;35735;52.226;21.254;2023-06-22T06:48:52;100500.56;;;23.09;100.00
44988;BME280;35735;52.226;21.254;2023-06-22T06:53:52;100496.72;;;23.11;100.00
44988;BME280;35735;52.226;21.254;2023-06-22T06:58:53;100509.31;;;23.17;100.00
44988;BME280;35735;52.226;21.254;2023-06-22T07:03:53;100507.28;;;23.21;100.00
44988;BME280;35735;52.226;21.254;2023-06-22T07:08:55;100497.09;;;23.23;100.00
44988;BME280;35735;52.226;21.254;2023-06-22T07:13:55;100493.84;;;23.32;100.00
44988;BME280;35735;52.226;21.254;2023-06-22T07:18:56;100499.09;;;23.37;100.00
44988;BME280;35735;52.226;21.254;2023-06-22T07:23:56;100510.28;;;23.34;100.00
44988;BME280;35735;52.226;21.254;2023-06-22T07:28:57;100507.44;;;23.35;100.00
44988;BME280;35735;52.226;21.254;2023-06-22T07:33:57;100509.50;;;23.49;100.00
44988;BME280;35735;52.226;21.254;2023-06-22T07:38:58;100512.50;;;23.79;100.00
44988;BME280;35735;52.226;21.254;2023-06-22T07:43:59;100514.59;;;24.09;100.00
44988;BME280;35735;52.226;21.254;2023-06-22T07:48:59;100529.97;;;24.13;100.00
44988;BME280;35735;52.226;21.254;2023-06-22T07:54:00;100525.50;;;24.28;100.00
44988;BME280;35735;52.226;21.254;2023-06-22T07:59:00;100531.84;;;24.46;100.00
44988;BME280;35735;52.226;21.254;2023-06-22T08:04:01;100514.53;;;24.92;100.00
44988;BME280;35735;52.226;21.254;2023-06-22T08:09:02;100526.44;;;25.40;100.00
44988;BME280;35735;52.226;21.254;2023-06-22T08:14:02;100526.41;;;25.86;100.00
44988;BME280;35735;52.226;21.254;2023-06-22T08:19:03;100542.00;;;26.32;100.00
44988;BME280;35735;52.226;21.254;2023-06-22T08:24:04;100527.16;;;26.62;100.00
44988;BME280;35735;52.226;21.254;2023-06-22T08:29:04;100520.44;;;26.80;100.00
44988;BME280;35735;52.226;21.254;2023-06-22T08:34:05;100522.34;;;27.07;100.00
44988;BME280;35735;52.226;21.254;2023-06-22T08:39:05;100532.16;;;27.40;100.00
44988;BME280;35735;52.226;21.254;2023-06-22T08:44:06;100526.81;;;27.77;100.00
44988;BME280;35735;52.226;21.254;2023-06-22T08:49:07;100526.66;;;28.06;99.91
44988;BME280;35735;52.226;21.254;2023-06-22T08:54:07;100521.56;;;28.25;95.25
44988;BME280;35735;52.226;21.254;2023-06-22T08:59:08;100524.91;;;28.43;95.27
44988;BME280;35735;52.226;21.254;2023-06-22T09:04:08;100527.09;;;28.77;93.88
44988;BME280;35735;52.226;21.254;2023-06-22T09:09:09;100524.53;;;29.11;90.40
44988;BME280;35735;52.226;21.254;2023-06-22T09:14:10;100538.44;;;29.24;88.74
44988;BME280;35735;52.226;21.254;2023-06-22T09:19:11;100535.78;;;29.33;87.77
44988;BME280;35735;52.226;21.254;2023-06-22T09:24:11;100546.22;;;29.43;87.04
44988;BME280;35735;52.226;21.254;2023-06-22T09:29:12;100542.75;;;29.63;86.70
44988;BME280;35735;52.226;21.254;2023-06-22T09:34:13;100530.50;;;29.90;85.71
44988;BME280;35735;52.226;21.254;2023-06-22T09:39:13;100519.91;;;30.06;84.07
44988;BME280;35735;52.226;21.254;2023-06-22T09:44:14;100520.47;;;30.34;83.08
44988;BME280;35735;52.226;21.254;2023-06-22T09:49:14;100517.69;;;30.45;81.29
44988;BME280;35735;52.226;21.254;2023-06-22T09:54:15;100508.72;;;30.53;78.47
44988;BME280;35735;52.226;21.254;2023-06-22T09:59:15;100514.69;;;30.60;77.49
44988;BME280;35735;52.226;21.254;2023-06-22T10:04:16;100509.72;;;30.63;76.10
44988;BME280;35735;52.226;21.254;2023-06-22T10:09:17;100513.03;;;30.46;71.31
44988;BME280;35735;52.226;21.254;2023-06-22T10:14:17;100526.28;;;30.31;68.63
44988;BME280;35735;52.226;21.254;2023-06-22T10:19:18;100518.22;;;30.39;68.79
44988;BME280;35735;52.226;21.254;2023-06-22T10:24:18;100506.84;;;30.42;69.75
44988;BME280;35735;52.226;21.254;2023-06-22T10:29:20;100504.31;;;30.51;67.94
44988;BME280;35735;52.226;21.254;2023-06-22T10:34:20;100518.09;;;30.41;67.64
44988;BME280;35735;52.226;21.254;2023-06-22T10:39:21;100504.31;;;30.51;67.83
44988;BME280;35735;52.226;21.254;2023-06-22T10:44:21;100511.66;;;30.63;69.32
44988;BME280;35735;52.226;21.254;2023-06-22T10:49:22;100500.75;;;30.71;68.68
44988;BME280;35735;52.226;21.254;2023-06-22T10:54:22;100502.63;;;30.82;70.93
44988;BME280;35735;52.226;21.254;2023-06-22T10:59:23;100488.94;;;31.01;71.37
44988;BME280;35735;52.226;21.254;2023-06-22T11:04:23;100491.50;;;31.26;70.35
44988;BME280;35735;52.226;21.254;2023-06-22T11:09:24;100488.25;;;31.20;68.74
44988;BME280;35735;52.226;21.254;2023-06-22T11:14:25;100473.59;;;31.07;68.22
44988;BME280;35735;52.226;21.254;2023-06-22T11:19:25;100480.94;;;31.08;68.73
44988;BME280;35735;52.226;21.254;2023-06-22T11:24:26;100479.44;;;31.04;68.29
44988;BME280;35735;52.226;21.254;2023-06-22T11:29:27;100469.28;;;31.14;69.40
44988;BME280;35735;52.226;21.254;2023-06-22T11:34:27;100480.66;;;31.23;70.76
44988;BME280;35735;52.226;21.254;2023-06-22T11:39:28;100471.22;;;31.35;69.78
44988;BME280;35735;52.226;21.254;2023-06-22T11:44:28;100467.94;;;31.30;67.97
44988;BME280;35735;52.226;21.254;2023-06-22T11:49:30;100468.66;;;31.11;69.38
44988;BME280;35735;52.226;21.254;2023-06-22T11:54:31;100475.97;;;31.23;69.26
44988;BME280;35735;52.226;21.254;2023-06-22T11:59:31;100466.41;;;31.26;68.94
44988;BME280;35735;52.226;21.254;2023-06-22T12:04:32;100471.63;;;31.30;68.91
44988;BME280;35735;52.226;21.254;2023-06-22T12:09:32;100471.66;;;31.19;68.56
44988;BME280;35735;52.226;21.254;2023-06-22T12:14:33;100463.97;;;31.11;68.96
44988;BME280;35735;52.226;21.254;2023-06-22T12:19:33;100477.16;;;31.09;68.68
44988;BME280;35735;52.226;21.254;2023-06-22T12:24:34;100463.22;;;31.09;68.96
44988;BME280;35735;52.226;21.254;2023-06-22T12:29:35;100472.81;;;31.16;69.02
44988;BME280;35735;52.226;21.254;2023-06-22T12:34:35;100464.75;;;31.02;67.36
44988;BME280;35735;52.226;21.254;2023-06-22T12:39:36;100458.16;;;30.92;67.37
44988;BME280;35735;52.226;21.254;2023-06-22T12:44:38;100459.72;;;30.96;68.00
44988;BME280;35735;52.226;21.254;2023-06-22T12:49:39;100452.97;;;30.98;67.90
44988;BME280;35735;52.226;21.254;2023-06-22T12:54:39;100460.31;;;30.88;67.16
44988;BME280;35735;52.226;21.254;2023-06-22T12:59:40;100443.50;;;30.78;67.26
44988;BME280;35735;52.226;21.254;2023-06-22T13:04:40;100461.06;;;30.90;67.28
44988;BME280;35735;52.226;21.254;2023-06-22T13:09:41;100452.97;;;30.87;66.29
44988;BME280;35735;52.226;21.254;2023-06-22T13:14:41;100448.69;;;30.83;66.07
44988;BME280;35735;52.226;21.254;2023-06-22T13:19:42;100462.62;;;30.72;66.17
44988;BME280;35735;52.226;21.254;2023-06-22T13:24:43;100445.28;;;30.68;64.49
44988;BME280;35735;52.226;21.254;2023-06-22T13:29:43;100452.78;;;30.56;66.75
44988;BME280;35735;52.226;21.254;2023-06-22T13:34:44;100442.75;;;30.54;65.33
44988;BME280;35735;52.226;21.254;2023-06-22T13:39:44;100440.75;;;30.56;65.33
44988;BME280;35735;52.226;21.254;2023-06-22T13:44:45;100449.63;;;30.61;65.59
44988;BME280;35735;52.226;21.254;2023-06-22T13:49:45;100449.88;;;30.58;64.75
44988;BME280;35735;52.226;21.254;2023-06-22T13:54:46;100452.41;;;30.50;65.12
44988;BME280;35735;52.226;21.254;2023-06-22T13:59:47;100457.72;;;30.41;66.91
44988;BME280;35735;52.226;21.254;2023-06-22T14:04:47;100449.38;;;30.41;68.09
44988;BME280;35735;52.226;21.254;2023-06-22T14:09:48;100443.81;;;30.41;68.50
44988;BME280;35735;52.226;21.254;2023-06-22T14:14:48;100445.84;;;30.39;68.91
44988;BME280;35735;52.226;21.254;2023-06-22T14:19:49;100443.31;;;30.36;69.62
44988;BME280;35735;52.226;21.254;2023-06-22T14:24:50;100442.12;;;30.27;69.09
44988;BME280;35735;52.226;21.254;2023-06-22T14:29:50;100456.28;;;30.02;69.19
44988;BME280;35735;52.226;21.254;2023-06-22T14:34:51;100451.44;;;29.81;70.12
44988;BME280;35735;52.226;21.254;2023-06-22T14:39:51;100447.44;;;29.61;70.00
44988;BME280;35735;52.226;21.254;2023-06-22T14:44:52;100448.41;;;29.37;70.02
44988;BME280;35735;52.226;21.254;2023-06-22T14:49:53;100441.16;;;29.24;70.59
44988;BME280;35735;52.226;21.254;2023-06-22T14:54:55;100442.16;;;29.10;70.04
44988;BME280;35735;52.226;21.254;2023-06-22T14:59:55;100440.81;;;28.91;70.20
44988;BME280;35735;52.226;21.254;2023-06-22T15:04:56;100444.06;;;28.85;69.82
44988;BME280;35735;52.226;21.254;2023-06-22T15:09:57;100429.09;;;28.75;70.07
44988;BME280;35735;52.226;21.254;2023-06-22T15:14:57;100423.53;;;28.75;68.94
44988;BME280;35735;52.226;21.254;2023-06-22T15:19:58;100431.34;;;28.70;68.79
44988;BME280;35735;52.226;21.254;2023-06-22T15:24:58;100416.47;;;28.71;68.88
44988;BME280;35735;52.226;21.254;2023-06-22T15:29:59;100437.37;;;28.63;69.39
44988;BME280;35735;52.226;21.254;2023-06-22T15:34:59;100430.81;;;28.64;69.31
44988;BME280;35735;52.226;21.254;2023-06-22T15:40:00;100437.13;;;28.67;69.58
44988;BME280;35735;52.226;21.254;2023-06-22T15:45:00;100425.25;;;28.64;69.38
44988;BME280;35735;52.226;21.254;2023-06-22T15:50:01;100423.59;;;28.62;70.11
44988;BME280;35735;52.226;21.254;2023-06-22T15:55:02;100416.28;;;28.48;69.25
44988;BME280;35735;52.226;21.254;2023-06-22T16:00:03;100423.41;;;28.39;70.09
44988;BME280;35735;52.226;21.254;2023-06-22T16:05:04;100417.19;;;28.36;70.20
44988;BME280;35735;52.226;21.254;2023-06-22T16:10:06;100411.75;;;28.34;70.76
44988;BME280;35735;52.226;21.254;2023-06-22T16:15:07;100415.91;;;28.28;70.69
44988;BME280;35735;52.226;21.254;2023-06-22T16:20:08;100412.31;;;28.26;70.91
44988;BME280;35735;52.226;21.254;2023-06-22T16:25:09;100408.09;;;28.34;71.33
44988;BME280;35735;52.226;21.254;2023-06-22T16:30:10;100408.88;;;28.36;71.69
44988;BME280;35735;52.226;21.254;2023-06-22T16:35:11;100407.63;;;28.40;71.33
44988;BME280;35735;52.226;21.254;2023-06-22T16:40:11;100404.31;;;28.35;70.61
44988;BME280;35735;52.226;21.254;2023-06-22T16:45:15;100415.91;;;28.28;70.56
44988;BME280;35735;52.226;21.254;2023-06-22T16:50:17;100412.22;;;28.28;71.25
44988;BME280;35735;52.226;21.254;2023-06-22T16:55:20;100406.78;;;28.26;70.99
44988;BME280;35735;52.226;21.254;2023-06-22T17:00:21;100397.78;;;28.23;71.09
44988;BME280;35735;52.226;21.254;2023-06-22T17:05:22;100399.37;;;28.14;71.08
44988;BME280;35735;52.226;21.254;2023-06-22T17:10:23;100401.06;;;28.04;71.08
44988;BME280;35735;52.226;21.254;2023-06-22T17:15:24;100405.84;;;28.02;70.78
44988;BME280;35735;52.226;21.254;2023-06-22T17:20:26;100392.63;;;27.93;69.83
44988;BME280;35735;52.226;21.254;2023-06-22T17:25:32;100391.06;;;27.88;69.87
44988;BME280;35735;52.226;21.254;2023-06-22T17:30:33;100382.19;;;27.83;69.59
44988;BME280;35735;52.226;21.254;2023-06-22T17:35:45;100385.50;;;27.76;69.69
44988;BME280;35735;52.226;21.254;2023-06-22T17:40:46;100378.53;;;27.70;70.73
44988;BME280;35735;52.226;21.254;2023-06-22T17:45:46;100378.19;;;27.62;70.56
44988;BME280;35735;52.226;21.254;2023-06-22T17:50:48;100386.41;;;27.50;70.72
44988;BME280;35735;52.226;21.254;2023-06-22T17:55:52;100377.53;;;27.45;71.82
44988;BME280;35735;52.226;21.254;2023-06-22T18:00:52;100378.38;;;27.33;71.65
44988;BME280;35735;52.226;21.254;2023-06-22T18:05:54;100385.44;;;27.24;72.75
44988;BME280;35735;52.226;21.254;2023-06-22T18:10:56;100370.16;;;27.18;73.51
44988;BME280;35735;52.226;21.254;2023-06-22T18:15:57;100376.09;;;27.12;74.70
44988;BME280;35735;52.226;21.254;2023-06-22T18:21:00;100377.75;;;27.02;75.75
44988;BME280;35735;52.226;21.254;2023-06-22T18:26:03;100383.78;;;26.82;77.09
44988;BME280;35735;52.226;21.254;2023-06-22T18:31:05;100370.75;;;26.69;78.94
44988;BME280;35735;52.226;21.254;2023-06-22T18:36:06;100377.00;;;26.58;80.27
44988;BME280;35735;52.226;21.254;2023-06-22T18:41:20;100369.00;;;26.54;80.83
44988;BME280;35735;52.226;21.254;2023-06-22T18:46:34;100375.59;;;26.38;81.68
44988;BME280;35735;52.226;21.254;2023-06-22T18:52:03;100377.09;;;26.15;82.53
44988;BME280;35735;52.226;21.254;2023-06-22T18:57:25;100381.34;;;25.92;83.63
44988;BME280;35735;52.226;21.254;2023-06-22T19:23:29;100406.44;;;25.00;88.20
44988;BME280;35735;52.226;21.254;2023-06-22T19:28:31;100399.69;;;24.73;88.78
44988;BME280;35735;52.226;21.254;2023-06-22T19:33:32;100399.69;;;24.41;89.66
44988;BME280;35735;52.226;21.254;2023-06-22T19:38:33;100398.25;;;24.18;90.96
44988;BME280;35735;52.226;21.254;2023-06-22T19:43:33;100388.66;;;24.10;91.55
44988;BME280;35735;52.226;21.254;2023-06-22T19:48:34;100383.09;;;23.94;92.21
44988;BME280;35735;52.226;21.254;2023-06-22T19:53:40;100380.22;;;23.79;92.73
44988;BME280;35735;52.226;21.254;2023-06-22T19:58:40;100390.16;;;23.48;93.19
44988;BME280;35735;52.226;21.254;2023-06-22T20:03:41;100382.87;;;23.30;93.86
44988;BME280;35735;52.226;21.254;2023-06-22T20:08:43;100377.25;;;23.16;94.66
44988;BME280;35735;52.226;21.254;2023-06-22T20:13:49;100378.81;;;23.02;95.07
44988;BME280;35735;52.226;21.254;2023-06-22T20:19:09;100375.00;;;22.87;95.69
44988;BME280;35735;52.226;21.254;2023-06-22T20:24:12;100372.37;;;22.67;96.41
44988;BME280;35735;52.226;21.254;2023-06-22T20:29:26;100372.34;;;22.49;96.85
44988;BME280;35735;52.226;21.254;2023-06-22T20:34:36;100356.72;;;22.32;97.49
44988;BME280;35735;52.226;21.254;2023-06-22T20:39:37;100355.94;;;22.10;98.01
44988;BME280;35735;52.226;21.254;2023-06-22T20:44:38;100350.00;;;21.81;98.62
44988;BME280;35735;52.226;21.254;2023-06-22T20:49:38;100345.59;;;21.58;99.15
44988;BME280;35735;52.226;21.254;2023-06-22T20:54:39;100338.13;;;21.41;99.79
44988;BME280;35735;52.226;21.254;2023-06-22T20:59:40;100337.03;;;21.24;100.00
44988;BME280;35735;52.226;21.254;2023-06-22T21:04:40;100350.16;;;21.18;100.00
44988;BME280;35735;52.226;21.254;2023-06-22T21:09:41;100346.38;;;21.00;100.00
44988;BME280;35735;52.226;21.254;2023-06-22T21:14:41;100343.62;;;20.79;100.00
44988;BME280;35735;52.226;21.254;2023-06-22T21:19:42;100339.03;;;20.58;100.00
44988;BME280;35735;52.226;21.254;2023-06-22T21:24:42;100332.66;;;20.57;100.00
44988;BME280;35735;52.226;21.254;2023-06-22T21:29:44;100337.09;;;20.60;100.00
44988;BME280;35735;52.226;21.254;2023-06-22T21:34:44;100332.22;;;20.46;100.00
44988;BME280;35735;52.226;21.254;2023-06-22T21:39:45;100337.31;;;20.33;100.00
44988;BME280;35735;52.226;21.254;2023-06-22T21:44:46;100342.50;;;20.18;100.00
44988;BME280;35735;52.226;21.254;2023-06-22T21:49:46;100326.94;;;19.97;100.00
44988;BME280;35735;52.226;21.254;2023-06-22T21:54:47;100330.28;;;19.82;100.00
44988;BME280;35735;52.226;21.254;2023-06-22T21:59:47;100320.75;;;19.68;100.00
44988;BME280;35735;52.226;21.254;2023-06-22T22:04:48;100324.16;;;19.51;100.00
44988;BME280;35735;52.226;21.254;2023-06-22T22:09:49;100329.84;;;19.45;100.00
44988;BME280;35735;52.226;21.254;2023-06-22T22:14:50;100335.44;;;19.42;100.00
44988;BME280;35735;52.226;21.254;2023-06-22T22:19:50;100348.69;;;19.29;100.00
44988;BME280;35735;52.226;21.254;2023-06-22T22:24:51;100368.97;;;19.23;100.00
44988;BME280;35735;52.226;21.254;2023-06-22T22:29:51;100358.03;;;19.23;100.00
44988;BME280;35735;52.226;21.254;2023-06-22T22:34:52;100353.53;;;19.21;100.00
44988;BME280;35735;52.226;21.254;2023-06-22T22:39:52;100343.78;;;19.14;100.00
44988;BME280;35735;52.226;21.254;2023-06-22T22:44:53;100352.37;;;19.03;100.00
44988;BME280;35735;52.226;21.254;2023-06-22T22:49:54;100364.66;;;18.91;100.00
44988;BME280;35735;52.226;21.254;2023-06-22T22:54:55;100363.31;;;18.76;100.00
44988;BME280;35735;52.226;21.254;2023-06-22T22:59:55;100357.28;;;18.66;100.00
44988;BME280;35735;52.226;21.254;2023-06-22T23:04:57;100347.12;;;18.70;100.00
44988;BME280;35735;52.226;21.254;2023-06-22T23:09:58;100348.09;;;18.67;100.00
44988;BME280;35735;52.226;21.254;2023-06-22T23:14:59;100342.09;;;18.58;100.00
44988;BME280;35735;52.226;21.254;2023-06-22T23:19:59;100336.88;;;18.50;100.00
44988;BME280;35735;52.226;21.254;2023-06-22T23:25:00;100341.03;;;18.35;100.00
44988;BME280;35735;52.226;21.254;2023-06-22T23:30:00;100321.34;;;18.24;100.00
44988;BME280;35735;52.226;21.254;2023-06-22T23:35:01;100328.34;;;18.32;100.00
44988;BME280;35735;52.226;21.254;2023-06-22T23:40:05;100314.28;;;18.18;100.00
44988;BME280;35735;52.226;21.254;2023-06-22T23:45:07;100310.25;;;18.02;100.00
44988;BME280;35735;52.226;21.254;2023-06-22T23:50:08;100302.06;;;18.02;100.00
44988;BME280;35735;52.226;21.254;2023-06-22T23:55:10;100285.16;;;17.89;100.00
